createdAt,value
2019-04-11T00:00:39.727Z,10.93
2019-04-11T00:03:09.292Z,11.10
2019-04-11T00:05:39.132Z,10.20
2019-04-11T00:08:08.616Z,10.83
2019-04-11T00:10:37.851Z,11.20
2019-04-11T00:13:17.350Z,10.93
2019-04-11T00:15:38.537Z,11.13
2019-04-11T00:18:08.311Z,11.17
2019-04-11T00:20:38.141Z,11.00
2019-04-11T00:23:08.155Z,11.53
2019-04-11T00:25:37.819Z,11.63
2019-04-11T00:28:07.791Z,10.93
2019-04-11T00:30:37.185Z,10.83
2019-04-11T00:33:07.779Z,11.17
2019-04-11T00:35:37.313Z,11.73
2019-04-11T00:38:07.692Z,10.93
2019-04-11T00:40:38.167Z,11.50
2019-04-11T00:43:07.441Z,11.00
2019-04-11T00:45:36.607Z,11.77
2019-04-11T00:48:05.879Z,11.40
2019-04-11T00:50:35.115Z,11.00
2019-04-11T00:53:05.505Z,11.57
2019-04-11T00:55:35.608Z,11.00
2019-04-11T00:58:05.549Z,10.87
2019-04-11T01:00:36.540Z,11.33
2019-04-11T01:03:06.866Z,12.07
2019-04-11T01:05:37.366Z,12.53
2019-04-11T01:08:07.301Z,11.60
2019-04-11T01:10:36.801Z,10.73
2019-04-11T01:13:07.132Z,11.03
2019-04-11T01:15:38.736Z,11.40
2019-04-11T01:18:08.248Z,10.80
2019-04-11T01:20:37.743Z,11.70
2019-04-11T01:23:07.013Z,10.90
2019-04-11T01:25:36.863Z,11.80
2019-04-11T01:28:06.808Z,12.17
2019-04-11T01:30:55.640Z,11.13
2019-04-11T01:33:24.944Z,11.20
2019-04-11T01:35:55.385Z,11.73
2019-04-11T01:38:25.596Z,11.57
2019-04-11T01:40:56.089Z,10.93
2019-04-11T01:43:26.128Z,11.93
2019-04-11T01:45:55.999Z,10.93
2019-04-11T01:48:39.645Z,11.67
2019-04-11T01:51:09.691Z,11.17
2019-04-11T01:53:40.554Z,11.80
2019-04-11T01:56:10.652Z,12.10
2019-04-11T01:58:40.634Z,12.07
2019-04-11T02:01:28.545Z,12.07
2019-04-11T02:04:23.740Z,12.17
2019-04-11T02:06:54.120Z,11.60
2019-04-11T02:09:24.167Z,11.83
2019-04-11T02:11:54.048Z,12.00
2019-04-11T02:14:24.148Z,10.83
2019-04-11T02:16:53.683Z,12.13
2019-04-11T02:19:23.873Z,11.50
2019-04-11T02:21:54.948Z,11.33
2019-04-11T02:24:50.181Z,11.97
2019-04-11T02:27:23.306Z,11.93
2019-04-11T02:29:53.057Z,11.90
2019-04-11T02:32:25.371Z,12.03
2019-04-11T02:34:58.410Z,11.87
2019-04-11T02:37:26.294Z,12.20
2019-04-11T02:39:57.867Z,11.93
2019-04-11T02:42:27.706Z,12.70
2019-04-11T02:45:13.107Z,11.83
2019-04-11T02:47:32.632Z,11.60
2019-04-11T02:50:00.019Z,11.67
2019-04-11T02:52:31.116Z,12.20
2019-04-11T02:55:00.910Z,11.90
2019-04-11T02:57:32.156Z,12.40
2019-04-11T03:00:02.123Z,13.03
2019-04-11T03:02:32.721Z,12.57
2019-04-11T03:05:02.806Z,12.13
2019-04-11T03:07:34.037Z,12.23
2019-04-11T03:10:04.946Z,12.27
2019-04-11T03:12:36.130Z,12.87
2019-04-11T03:15:23.991Z,12.57
2019-04-11T03:17:43.104Z,12.13
2019-04-11T03:20:21.024Z,12.37
2019-04-11T03:22:40.624Z,11.57
2019-04-11T03:25:10.057Z,12.30
2019-04-11T03:27:40.923Z,12.57
2019-04-11T03:30:15.335Z,12.90
2019-04-11T03:33:43.605Z,12.73
2019-04-11T03:36:07.906Z,12.90
2019-04-11T03:38:05.781Z,12.03
2019-04-11T03:40:32.116Z,11.93
2019-04-11T03:43:04.326Z,12.67
2019-04-11T03:45:41.656Z,12.57
2019-04-11T03:48:05.728Z,12.80
2019-04-11T03:50:26.106Z,13.37
2019-04-11T03:52:56.043Z,12.90
2019-04-11T03:55:26.006Z,12.60
2019-04-11T03:57:58.644Z,13.20
2019-04-11T04:00:33.572Z,12.53
2019-04-11T04:03:00.186Z,12.87
2019-04-11T04:05:32.392Z,13.07
2019-04-11T04:08:03.500Z,13.67
2019-04-11T04:10:34.151Z,12.60
2019-04-11T04:13:05.422Z,12.37
2019-04-11T04:16:08.147Z,12.77
2019-04-11T04:18:40.336Z,13.67
2019-04-11T04:21:31.172Z,14.03
2019-04-11T04:24:03.831Z,13.00
2019-04-11T04:26:35.153Z,13.10
2019-04-11T04:29:04.666Z,13.70
2019-04-11T04:31:35.030Z,13.67
2019-04-11T04:34:04.366Z,13.07
2019-04-11T04:36:36.070Z,12.80
2019-04-11T04:39:06.245Z,13.50
2019-04-11T04:41:41.429Z,13.63
2019-04-11T04:44:08.596Z,13.47
2019-04-11T04:46:52.656Z,13.53
2019-04-11T04:49:11.048Z,13.30
2019-04-11T04:51:41.548Z,13.90
2019-04-11T04:54:14.206Z,13.47
2019-04-11T04:56:46.037Z,13.57
2019-04-11T04:59:16.345Z,13.80
2019-04-11T05:01:47.646Z,14.33
2019-04-11T05:04:21.057Z,13.90
2019-04-11T05:06:52.248Z,13.70
2019-04-11T05:09:21.481Z,13.93
2019-04-11T05:11:50.957Z,13.67
2019-04-11T05:14:21.005Z,13.17
2019-04-11T05:16:50.552Z,13.03
2019-04-11T05:19:19.797Z,13.83
2019-04-11T05:21:49.880Z,13.13
2019-04-11T05:24:19.150Z,14.13
2019-04-11T05:26:48.390Z,13.77
2019-04-11T05:29:17.638Z,14.00
2019-04-11T05:31:47.069Z,13.33
2019-04-11T05:34:16.307Z,13.27
2019-04-11T05:36:45.549Z,13.67
2019-04-11T05:39:16.779Z,13.70
2019-04-11T05:41:47.149Z,13.40
2019-04-11T05:44:16.846Z,13.90
2019-04-11T05:46:53.262Z,13.90
2019-04-11T05:49:36.155Z,14.13
2019-04-11T05:52:05.958Z,14.37
2019-04-11T05:54:47.610Z,14.07
2019-04-11T05:57:15.881Z,14.50
2019-04-11T05:59:50.978Z,14.73
2019-04-11T06:02:49.251Z,14.43
2019-04-11T06:05:49.937Z,15.60
2019-04-11T06:08:25.059Z,14.17
2019-04-11T06:11:17.260Z,13.40
2019-04-11T06:14:05.679Z,13.80
2019-04-11T06:16:39.540Z,14.13
2019-04-11T06:19:30.473Z,14.07
2019-04-11T06:22:08.688Z,13.97
2019-04-11T06:25:06.688Z,14.00
2019-04-11T06:27:45.903Z,13.57
2019-04-11T06:30:32.944Z,15.53
2019-04-11T06:33:32.655Z,15.20
2019-04-11T06:36:21.066Z,14.03
2019-04-11T06:39:09.860Z,14.13
2019-04-11T06:42:07.625Z,14.07
2019-04-11T06:44:54.264Z,14.37
2019-04-11T06:47:38.206Z,14.50
2019-04-11T06:50:15.975Z,14.27
2019-04-11T06:52:45.457Z,14.10
2019-04-11T06:55:42.755Z,14.70
2019-04-11T06:58:16.215Z,15.03
2019-04-11T07:00:50.014Z,14.83
2019-04-11T07:03:26.267Z,15.17
2019-04-11T07:05:55.269Z,14.97
2019-04-11T07:08:27.533Z,15.47
2019-04-11T07:11:02.864Z,14.20
2019-04-11T07:13:43.360Z,14.73
2019-04-11T07:16:13.464Z,15.07
2019-04-11T07:19:02.872Z,14.53
2019-04-11T07:21:35.471Z,15.53
2019-04-11T07:24:30.349Z,14.27
2019-04-11T07:27:05.195Z,15.13
2019-04-11T07:30:00.214Z,14.60
2019-04-11T07:32:30.029Z,14.30
2019-04-11T07:35:21.639Z,14.63
2019-04-11T07:37:53.386Z,14.53
2019-04-11T07:40:41.175Z,14.73
2019-04-11T07:43:35.704Z,14.63
2019-04-11T07:46:25.015Z,15.10
2019-04-11T07:49:03.759Z,15.37
2019-04-11T07:51:43.014Z,15.40
2019-04-11T07:54:18.050Z,15.67
2019-04-11T07:57:02.397Z,14.87
2019-04-11T07:59:50.960Z,16.20
2019-04-11T08:02:38.280Z,15.20
2019-04-11T08:05:46.774Z,14.87
2019-04-11T08:08:38.982Z,15.63
2019-04-11T08:11:25.719Z,14.80
2019-04-11T08:14:12.585Z,15.40
2019-04-11T08:17:01.659Z,15.47
2019-04-11T08:19:49.108Z,15.30
2019-04-11T08:22:35.177Z,15.70
2019-04-11T08:25:26.002Z,17.33
2019-04-11T08:28:01.369Z,15.50
2019-04-11T08:31:05.754Z,16.23
2019-04-11T08:33:35.603Z,15.83
2019-04-11T08:36:29.668Z,15.73
2019-04-11T08:39:00.643Z,15.57
2019-04-11T08:41:44.059Z,15.90
2019-04-11T08:44:18.037Z,15.77
2019-04-11T08:46:51.123Z,15.77
2019-04-11T08:49:33.861Z,15.20
2019-04-11T08:52:09.219Z,15.93
2019-04-11T08:54:55.963Z,15.93
2019-04-11T08:57:41.091Z,16.20
2019-04-11T09:00:42.182Z,16.70
2019-04-11T09:03:18.189Z,16.43
2019-04-11T09:06:02.572Z,15.93
2019-04-11T09:09:00.918Z,16.63
2019-04-11T09:11:42.347Z,16.00
2019-04-11T09:14:46.467Z,15.17
2019-04-11T09:17:24.449Z,15.87
2019-04-11T09:20:11.550Z,17.47
2019-04-11T09:22:47.398Z,15.73
2019-04-11T09:25:35.592Z,15.90
2019-04-11T09:28:13.652Z,16.37
2019-04-11T09:31:03.576Z,16.47
2019-04-11T09:33:51.321Z,16.70
2019-04-11T09:36:47.283Z,17.17
2019-04-11T09:39:41.511Z,17.10
2019-04-11T09:42:38.882Z,16.60
2019-04-11T09:45:38.917Z,16.80
2019-04-11T09:48:27.126Z,17.60
2019-04-11T09:51:14.004Z,17.63
2019-04-11T09:53:45.100Z,19.40
2019-04-11T09:56:39.684Z,28.03
2019-04-11T09:59:14.293Z,18.40
2019-04-11T10:02:03.102Z,17.70
2019-04-11T10:04:32.372Z,17.73
2019-04-11T10:07:30.153Z,18.70
2019-04-11T10:10:12.926Z,17.77
2019-04-11T10:13:00.531Z,17.60
2019-04-11T10:15:47.417Z,17.87
2019-04-11T10:18:51.533Z,17.47
2019-04-11T10:21:21.493Z,18.53
2019-04-11T10:24:20.536Z,17.67
2019-04-11T10:26:56.348Z,17.93
2019-04-11T10:29:44.095Z,18.43
2019-04-11T10:32:14.902Z,19.40
2019-04-11T10:34:54.158Z,18.13
2019-04-11T10:37:23.506Z,17.63
2019-04-11T10:40:01.886Z,19.27
2019-04-11T10:42:32.871Z,19.80
2019-04-11T10:45:31.199Z,18.83
2019-04-11T10:48:05.570Z,18.53
2019-04-11T10:51:02.976Z,18.30
2019-04-11T10:53:33.281Z,19.77
2019-04-11T10:56:34.670Z,17.90
2019-04-11T10:59:05.123Z,17.63
2019-04-11T11:01:52.699Z,19.63
2019-04-11T11:04:34.781Z,19.10
2019-04-11T11:07:25.080Z,19.27
2019-04-11T11:09:58.753Z,19.37
2019-04-11T11:12:37.162Z,19.50
2019-04-11T11:15:19.863Z,19.17
2019-04-11T11:20:50.071Z,19.73
2019-04-11T11:23:24.579Z,18.47
2019-04-11T11:26:22.543Z,18.70
2019-04-11T11:29:16.867Z,19.20
2019-04-11T11:31:58.165Z,18.87
2019-04-11T11:34:49.314Z,18.30
2019-04-11T11:37:37.358Z,18.40
2019-04-11T11:40:20.028Z,19.83
2019-04-11T11:43:27.474Z,19.60
2019-04-11T11:46:14.437Z,19.13
2019-04-11T11:48:49.527Z,18.87
2019-04-11T11:51:27.022Z,19.43
2019-04-11T11:54:24.010Z,19.90
2019-04-11T11:56:56.155Z,19.27
2019-04-11T11:59:38.700Z,19.07
2019-04-11T12:02:15.684Z,20.20
2019-04-11T12:05:20.489Z,19.03
2019-04-11T12:07:58.110Z,19.77
2019-04-11T12:10:41.657Z,19.73
2019-04-11T12:13:30.414Z,18.90
2019-04-11T12:16:09.983Z,18.57
2019-04-11T12:18:56.744Z,18.70
2019-04-11T12:21:31.011Z,18.50
2019-04-11T12:24:19.595Z,18.23
2019-04-11T12:27:02.375Z,19.10
2019-04-11T12:29:53.649Z,18.93
2019-04-11T12:32:25.822Z,19.00
2019-04-11T12:35:04.092Z,18.60
2019-04-11T12:37:38.244Z,18.23
2019-04-11T12:40:26.809Z,18.70
2019-04-11T12:42:56.572Z,19.70
2019-04-11T12:45:43.413Z,19.47
2019-04-11T12:48:12.731Z,19.30
2019-04-11T12:50:59.493Z,17.77
2019-04-11T12:53:28.968Z,17.43
2019-04-11T12:56:33.438Z,19.30
2019-04-11T12:59:05.705Z,18.77
2019-04-11T13:01:53.552Z,18.73
2019-04-11T13:04:39.757Z,20.50
2019-04-11T13:07:34.447Z,20.10
2019-04-11T13:10:26.142Z,19.00
2019-04-11T13:13:20.428Z,18.60
2019-04-11T13:15:54.766Z,18.63
2019-04-11T13:19:01.173Z,18.83
2019-04-11T13:21:41.653Z,18.10
2019-04-11T13:24:38.841Z,19.10
2019-04-11T13:27:14.010Z,18.93
2019-04-11T13:30:03.481Z,18.30
2019-04-11T13:33:07.543Z,17.83
2019-04-11T13:36:04.941Z,18.97
2019-04-11T13:38:42.030Z,19.93
2019-04-11T13:41:28.800Z,19.27
2019-04-11T13:44:19.961Z,18.57
2019-04-11T13:47:06.833Z,19.70
2019-04-11T13:49:47.535Z,18.50
2019-04-11T13:53:05.595Z,18.47
2019-04-11T13:55:37.674Z,18.63
2019-04-11T13:58:24.479Z,18.20
2019-04-11T14:00:58.105Z,18.60
2019-04-11T14:03:49.638Z,18.30
2019-04-11T14:06:28.164Z,18.70
2019-04-11T14:09:22.488Z,18.87
2019-04-11T14:11:53.668Z,17.93
2019-04-11T14:14:43.443Z,18.00
2019-04-11T14:17:17.846Z,18.67
2019-04-11T14:20:11.604Z,18.50
2019-04-11T14:23:14.905Z,18.60
2019-04-11T14:26:02.210Z,19.73
2019-04-11T14:28:40.346Z,18.20
2019-04-11T14:31:23.906Z,18.70
2019-04-11T14:33:57.470Z,18.40
2019-04-11T14:36:44.513Z,18.80
2019-04-11T14:39:15.499Z,18.23
2019-04-11T14:42:02.374Z,18.07
2019-04-11T14:44:32.085Z,17.87
2019-04-11T14:47:39.312Z,17.60
2019-04-11T14:50:11.213Z,18.30
2019-04-11T14:52:57.586Z,18.30
2019-04-11T14:55:29.258Z,18.03
2019-04-11T14:58:16.099Z,17.97
2019-04-11T15:00:45.372Z,18.10
2019-04-11T15:03:29.460Z,17.23
2019-04-11T15:06:35.775Z,17.67
2019-04-11T15:09:31.980Z,17.33
2019-04-11T15:12:10.882Z,17.70
2019-04-11T15:15:05.003Z,17.87
2019-04-11T15:17:37.351Z,17.67
2019-04-11T15:20:34.114Z,17.60
2019-04-11T15:23:31.058Z,17.37
2019-04-11T15:26:21.890Z,16.37
2019-04-11T15:29:16.010Z,17.33
2019-04-11T15:32:13.557Z,17.00
2019-04-11T15:34:46.255Z,17.07
2019-04-11T15:37:53.174Z,17.67
2019-04-11T15:40:47.255Z,17.47
2019-04-11T15:43:42.145Z,17.23
2019-04-11T15:46:18.818Z,17.30
2019-04-11T15:49:06.997Z,18.20
2019-04-11T15:51:37.696Z,17.30
2019-04-11T15:54:25.983Z,17.70
2019-04-11T15:57:18.095Z,17.17
2019-04-11T16:00:06.268Z,16.70
2019-04-11T16:02:57.421Z,17.07
2019-04-11T16:05:48.431Z,17.10
2019-04-11T16:08:39.432Z,18.30
2019-04-11T16:11:28.422Z,17.53
2019-04-11T16:14:06.067Z,16.83
2019-04-11T16:17:03.361Z,16.83
2019-04-11T16:19:49.822Z,17.33
2019-04-11T16:22:36.689Z,17.87
2019-04-11T16:25:11.776Z,17.20
2019-04-11T16:28:12.128Z,17.50
2019-04-11T16:30:46.215Z,18.03
2019-04-11T16:33:30.135Z,17.63
2019-04-11T16:36:18.018Z,17.07
2019-04-11T16:38:57.659Z,17.13
2019-04-11T16:41:44.361Z,17.47
2019-04-11T16:44:18.461Z,15.93
2019-04-11T16:47:18.197Z,16.60
2019-04-11T16:49:47.532Z,16.73
2019-04-11T16:52:17.407Z,17.97
2019-04-11T16:54:46.635Z,18.07
2019-04-11T16:57:15.930Z,17.50
2019-04-11T16:59:45.167Z,16.30
2019-04-11T17:02:14.495Z,17.80
2019-04-11T17:04:43.733Z,17.33
2019-04-11T17:07:40.795Z,17.07
2019-04-11T17:10:10.613Z,17.43
2019-04-11T17:12:39.889Z,17.60
2019-04-11T17:15:09.206Z,17.10
2019-04-11T17:17:38.550Z,17.60
2019-04-11T17:20:08.130Z,17.13
2019-04-11T17:22:38.028Z,17.87
2019-04-11T17:25:07.478Z,17.23
2019-04-11T17:27:36.793Z,17.23
2019-04-11T17:30:06.932Z,18.70
2019-04-11T17:32:36.432Z,18.77
2019-04-11T17:35:06.207Z,18.50
2019-04-11T17:37:35.553Z,16.63
2019-04-11T17:40:07.041Z,16.97
2019-04-11T17:42:36.969Z,17.80
2019-04-11T17:45:07.080Z,17.20
2019-04-11T17:47:36.299Z,18.20
2019-04-11T17:50:06.188Z,16.90
2019-04-11T17:52:35.433Z,17.07
2019-04-11T17:55:05.439Z,16.47
2019-04-11T17:57:34.685Z,18.03
2019-04-11T18:00:04.750Z,17.17
2019-04-11T18:02:34.690Z,16.20
2019-04-11T18:05:04.159Z,16.00
2019-04-11T18:07:33.391Z,16.50
2019-04-11T18:10:02.626Z,16.53
2019-04-11T18:12:31.888Z,16.40
2019-04-11T18:15:02.296Z,17.03
2019-04-11T18:17:32.728Z,16.87
2019-04-11T18:20:04.500Z,18.63
2019-04-11T18:22:34.174Z,17.80
2019-04-11T18:25:03.422Z,18.13
2019-04-11T18:27:32.972Z,18.30
2019-04-11T18:30:02.514Z,16.90
2019-04-11T18:32:31.728Z,16.40
2019-04-11T18:35:02.400Z,17.70
2019-04-11T18:37:32.190Z,17.70
2019-04-11T18:40:06.348Z,16.73
2019-04-11T18:42:32.948Z,16.10
2019-04-11T18:45:02.219Z,16.37
2019-04-11T18:47:31.823Z,16.47
2019-04-11T18:50:01.084Z,16.27
2019-04-11T18:52:32.701Z,15.93
2019-04-11T18:55:01.958Z,16.40
2019-04-11T18:57:31.259Z,16.50
2019-04-11T19:00:02.342Z,16.70
2019-04-11T19:02:32.713Z,16.03
2019-04-11T19:05:02.381Z,15.67
2019-04-11T19:07:31.562Z,16.10
2019-04-11T19:10:00.786Z,15.40
2019-04-11T19:12:30.030Z,16.17
2019-04-11T19:14:59.278Z,16.10
2019-04-11T19:17:30.390Z,16.67
2019-04-11T19:19:59.646Z,15.80
2019-04-11T19:22:37.525Z,19.70
2019-04-11T19:24:59.839Z,20.00
2019-04-11T19:27:29.071Z,16.97
2019-04-11T19:29:58.594Z,16.40
2019-04-11T19:32:27.833Z,15.23
2019-04-11T19:34:57.089Z,16.33
2019-04-11T19:37:26.319Z,16.23
2019-04-11T19:39:55.578Z,16.10
2019-04-11T19:42:24.792Z,16.20
2019-04-11T19:44:54.035Z,15.90
2019-04-11T19:47:23.268Z,15.60
2019-04-11T19:49:52.566Z,16.07
2019-04-11T19:52:21.746Z,16.10
2019-04-11T19:54:51.105Z,15.87
2019-04-11T19:57:20.377Z,15.90
2019-04-11T19:59:49.653Z,15.13
2019-04-11T20:02:18.872Z,15.77
2019-04-11T20:04:50.338Z,15.57
2019-04-11T20:07:19.614Z,15.10
2019-04-11T20:09:50.838Z,14.90
2019-04-11T20:12:20.094Z,15.57
2019-04-11T20:14:49.328Z,15.50
2019-04-11T20:17:19.329Z,15.13
2019-04-11T20:20:00.685Z,15.67
2019-04-11T20:22:20.195Z,15.50
2019-04-11T20:24:49.416Z,14.17
2019-04-11T20:27:20.341Z,14.73
2019-04-11T20:29:53.127Z,15.10
2019-04-11T20:32:20.747Z,14.90
2019-04-11T20:34:49.965Z,16.20
2019-04-11T20:37:19.231Z,14.87
2019-04-11T20:39:48.476Z,14.43
2019-04-11T20:42:17.853Z,13.53
2019-04-11T20:44:47.108Z,13.60
2019-04-11T20:47:16.901Z,14.00
2019-04-11T20:49:49.475Z,14.30
2019-04-11T20:52:18.738Z,13.03
2019-04-11T20:54:47.956Z,12.50
2019-04-11T20:57:25.511Z,11.90
2019-04-11T20:59:48.410Z,11.77
2019-04-11T21:02:17.681Z,10.60
2019-04-11T21:04:46.999Z,11.33
2019-04-11T21:07:16.261Z,10.30
2019-04-11T21:09:45.483Z,9.43
2019-04-11T21:12:16.674Z,8.87
2019-04-11T21:14:45.892Z,8.63
2019-04-11T21:17:15.125Z,7.80
2019-04-11T21:19:44.338Z,8.17
2019-04-11T21:22:13.591Z,8.67
2019-04-11T21:24:42.803Z,8.43
2019-04-11T21:27:12.051Z,7.90
2019-04-11T21:29:42.369Z,7.73
2019-04-11T21:32:13.940Z,7.83
2019-04-11T21:34:42.540Z,7.60
2019-04-11T21:37:12.186Z,8.10
2019-04-11T21:39:41.422Z,8.17
2019-04-11T21:42:10.641Z,7.60
2019-04-11T21:44:39.864Z,6.87
2019-04-11T21:47:09.180Z,6.90
2019-04-11T21:49:40.891Z,7.07
2019-04-11T21:52:12.290Z,7.43
2019-04-11T21:54:45.086Z,7.30
2019-04-11T21:57:14.972Z,7.40
2019-04-11T21:59:44.798Z,8.40
2019-04-11T22:02:15.128Z,7.10
2019-04-11T22:04:44.342Z,7.03
2019-04-11T22:07:13.595Z,7.40
2019-04-11T22:09:42.818Z,7.57
2019-04-11T22:12:12.054Z,7.57
2019-04-11T22:14:41.961Z,6.57
2019-04-11T22:17:15.066Z,7.60
2019-04-11T22:19:45.307Z,7.80
2019-04-11T22:22:13.721Z,7.07
2019-04-11T22:24:42.969Z,7.90
2019-04-11T22:27:12.255Z,7.47
2019-04-11T22:29:42.379Z,7.50
2019-04-11T22:32:11.598Z,7.10
2019-04-11T22:34:43.900Z,7.23
2019-04-11T22:37:13.115Z,7.63
2019-04-11T22:39:42.644Z,7.50
2019-04-11T22:42:12.339Z,7.60
2019-04-11T22:44:41.694Z,7.67
2019-04-11T22:47:12.934Z,7.60
2019-04-11T22:49:42.523Z,7.07
2019-04-11T22:52:12.211Z,7.90
2019-04-11T22:54:42.016Z,7.03
2019-04-11T22:57:12.116Z,7.37
2019-04-11T22:59:45.005Z,7.67
2019-04-11T23:02:29.213Z,7.40
2019-04-11T23:04:58.470Z,7.33
2019-04-11T23:07:28.890Z,7.37
2019-04-11T23:09:58.129Z,7.47
2019-04-11T23:12:28.781Z,7.23
2019-04-11T23:14:58.033Z,7.00
2019-04-11T23:17:27.256Z,7.10
2019-04-11T23:19:56.593Z,7.00
2019-04-11T23:22:25.803Z,7.93
2019-04-11T23:24:55.043Z,7.40
2019-04-11T23:27:24.258Z,7.30
2019-04-11T23:29:53.513Z,7.00
2019-04-11T23:32:22.741Z,7.13
2019-04-11T23:34:52.646Z,7.47
2019-04-11T23:37:22.820Z,7.10
2019-04-11T23:39:52.055Z,7.13
2019-04-11T23:42:21.277Z,7.50
2019-04-11T23:44:51.254Z,7.00
2019-04-11T23:47:23.035Z,7.87
2019-04-11T23:49:54.928Z,7.03
2019-04-11T23:52:26.379Z,6.80
2019-04-11T23:54:53.541Z,6.83
2019-04-11T23:57:22.739Z,7.30
2019-04-11T23:59:52.023Z,7.10
